createdAt,value
2022-12-28T00:01:31.179Z,2.70
2022-12-28T00:04:03.136Z,2.87
2022-12-28T00:06:29.792Z,3.17
2022-12-28T00:08:57.553Z,3.80
2022-12-28T00:11:30.582Z,3.43
2022-12-28T00:14:01.396Z,2.50
2022-12-28T00:16:35.008Z,3.07
2022-12-28T00:19:04.628Z,3.20
2022-12-28T00:21:31.834Z,3.37
2022-12-28T00:24:00.155Z,2.93
2022-12-28T00:26:29.638Z,2.60
2022-12-28T00:29:03.715Z,2.70
2022-12-28T00:31:32.877Z,2.60
2022-12-28T00:33:59.623Z,2.67
2022-12-28T00:37:09.225Z,2.23
2022-12-28T00:39:13.495Z,2.97
2022-12-28T00:41:40.354Z,3.07
2022-12-28T00:44:08.324Z,2.93
2022-12-28T00:46:35.097Z,2.30
2022-12-28T00:49:02.584Z,2.63
2022-12-28T00:51:29.406Z,2.77
2022-12-28T00:53:56.074Z,2.23
2022-12-28T00:56:23.532Z,2.90
2022-12-28T00:58:50.780Z,3.80
2022-12-28T01:01:22.262Z,2.90
2022-12-28T01:03:50.532Z,2.80
2022-12-28T01:06:19.957Z,2.83
2022-12-28T01:08:47.203Z,3.20
2022-12-28T01:11:18.399Z,2.63
2022-12-28T01:13:46.746Z,2.30
2022-12-28T01:16:16.071Z,2.63
2022-12-28T01:18:43.805Z,2.40
2022-12-28T01:21:13.628Z,2.83
2022-12-28T01:23:42.869Z,2.87
2022-12-28T01:26:09.693Z,2.70
2022-12-28T01:28:36.568Z,2.70
2022-12-28T01:31:09.452Z,2.90
2022-12-28T01:33:36.843Z,3.73
2022-12-28T01:36:23.617Z,3.10
2022-12-28T01:38:59.187Z,3.20
2022-12-28T01:41:28.319Z,3.13
2022-12-28T01:43:54.874Z,2.67
2022-12-28T01:46:45.998Z,3.07
2022-12-28T01:49:21.578Z,2.27
2022-12-28T01:52:00.751Z,2.10
2022-12-28T01:54:31.013Z,2.43
2022-12-28T01:56:58.658Z,2.80
2022-12-28T01:59:31.174Z,2.10
2022-12-28T02:01:58.139Z,2.90
2022-12-28T02:04:26.120Z,2.03
2022-12-28T02:06:54.557Z,2.20
2022-12-28T02:09:29.147Z,2.00
2022-12-28T02:11:57.846Z,2.10
2022-12-28T02:14:24.840Z,2.30
2022-12-28T02:16:53.278Z,2.27
2022-12-28T02:19:33.345Z,2.20
2022-12-28T02:22:14.915Z,2.20
2022-12-28T02:25:12.710Z,2.10
2022-12-28T02:27:59.750Z,1.90
2022-12-28T02:30:26.687Z,1.63
2022-12-28T02:33:52.269Z,1.93
2022-12-28T02:36:28.338Z,1.80
2022-12-28T02:39:03.227Z,1.80
2022-12-28T02:41:33.415Z,2.40
2022-12-28T02:44:01.222Z,2.60
2022-12-28T02:46:49.129Z,2.47
2022-12-28T02:49:43.888Z,1.80
2022-12-28T02:52:32.662Z,1.70
2022-12-28T02:55:33.742Z,1.83
2022-12-28T02:58:27.873Z,2.47
2022-12-28T03:01:00.586Z,2.90
2022-12-28T03:04:04.095Z,1.77
2022-12-28T03:07:01.433Z,2.30
2022-12-28T03:09:36.802Z,2.00
2022-12-28T03:12:19.738Z,1.80
2022-12-28T03:14:54.067Z,1.77
2022-12-28T03:17:42.845Z,2.00
2022-12-28T03:20:34.953Z,1.73
2022-12-28T03:23:24.346Z,1.40
2022-12-28T03:26:11.580Z,1.67
2022-12-28T03:29:03.634Z,2.03
2022-12-28T03:31:34.867Z,1.60
2022-12-28T03:34:07.500Z,1.30
2022-12-28T03:36:59.704Z,1.80
2022-12-28T03:39:41.731Z,1.63
2022-12-28T03:42:37.238Z,1.70
2022-12-28T03:45:46.289Z,1.63
2022-12-28T03:48:17.350Z,1.50
2022-12-28T03:50:48.373Z,1.57
2022-12-28T03:53:19.417Z,1.30
2022-12-28T03:55:46.237Z,1.30
2022-12-28T03:58:14.850Z,1.50
2022-12-28T04:00:41.771Z,1.60
2022-12-28T04:03:08.658Z,1.80
2022-12-28T04:05:35.387Z,1.50
2022-12-28T04:08:02.084Z,1.70
2022-12-28T04:10:29.958Z,1.80
2022-12-28T04:12:57.145Z,1.73
2022-12-28T04:15:23.795Z,1.30
2022-12-28T04:17:51.111Z,1.60
2022-12-28T04:20:18.047Z,1.30
2022-12-28T04:22:44.750Z,2.00
2022-12-28T04:25:11.543Z,1.30
2022-12-28T04:27:39.562Z,1.50
2022-12-28T04:30:14.776Z,1.20
2022-12-28T04:32:41.417Z,1.47
2022-12-28T04:35:08.777Z,1.27
2022-12-28T04:37:45.375Z,1.40
2022-12-28T04:40:12.593Z,1.17
2022-12-28T04:42:39.231Z,1.10
2022-12-28T04:45:06.387Z,1.63
2022-12-28T04:47:33.036Z,1.13
2022-12-28T04:49:59.839Z,1.70
2022-12-28T04:52:26.520Z,1.40
2022-12-28T04:54:53.152Z,1.13
2022-12-28T04:57:19.778Z,1.10
2022-12-28T04:59:46.406Z,1.33
2022-12-28T05:02:13.133Z,1.20
2022-12-28T05:04:39.849Z,1.33
2022-12-28T05:07:06.618Z,0.93
2022-12-28T05:09:33.232Z,1.23
2022-12-28T05:11:59.833Z,1.73
2022-12-28T05:14:26.482Z,1.30
2022-12-28T05:16:53.135Z,1.20
2022-12-28T05:19:19.715Z,1.67
2022-12-28T05:21:46.339Z,1.07
2022-12-28T05:24:12.945Z,1.63
2022-12-28T05:26:39.585Z,1.17
2022-12-28T05:29:06.245Z,1.53
2022-12-28T05:31:32.952Z,1.17
2022-12-28T05:33:59.578Z,1.13
2022-12-28T05:36:27.353Z,1.10
2022-12-28T05:38:55.076Z,1.30
2022-12-28T05:41:25.114Z,1.30
2022-12-28T05:43:52.482Z,1.13
2022-12-28T05:46:24.303Z,1.10
2022-12-28T05:48:51.349Z,1.37
2022-12-28T05:51:20.751Z,1.33
2022-12-28T05:53:47.749Z,1.00
2022-12-28T05:56:20.498Z,1.20
2022-12-28T05:58:54.688Z,1.43
2022-12-28T06:01:24.563Z,1.83
2022-12-28T06:03:57.368Z,1.33
2022-12-28T06:06:24.451Z,1.27
2022-12-28T06:08:51.337Z,1.23
2022-12-28T06:11:20.721Z,1.90
2022-12-28T06:13:47.943Z,1.70
2022-12-28T06:16:20.870Z,1.37
2022-12-28T06:18:47.891Z,1.37
2022-12-28T06:21:16.772Z,1.53
2022-12-28T06:23:44.573Z,1.70
2022-12-28T06:26:14.010Z,1.30
2022-12-28T06:28:41.725Z,1.70
2022-12-28T06:31:12.037Z,1.37
2022-12-28T06:33:38.985Z,1.30
2022-12-28T06:36:17.741Z,1.07
2022-12-28T06:38:46.749Z,1.63
2022-12-28T06:41:15.596Z,1.37
2022-12-28T06:43:43.662Z,1.40
2022-12-28T06:46:11.641Z,1.60
2022-12-28T06:48:39.183Z,1.50
2022-12-28T06:51:10.573Z,1.53
2022-12-28T06:53:46.470Z,1.40
2022-12-28T06:56:18.794Z,1.60
2022-12-28T06:58:46.575Z,1.60
2022-12-28T07:01:17.460Z,1.57
2022-12-28T07:03:45.050Z,1.33
2022-12-28T07:06:13.627Z,1.57
2022-12-28T07:08:40.535Z,1.40
2022-12-28T07:11:10.700Z,1.27
2022-12-28T07:13:37.470Z,1.50
2022-12-28T07:16:11.493Z,1.10
2022-12-28T07:18:38.400Z,1.80
2022-12-28T07:21:21.681Z,1.17
2022-12-28T07:23:52.293Z,1.40
2022-12-28T07:26:24.759Z,1.20
2022-12-28T07:28:54.070Z,1.60
2022-12-28T07:31:35.722Z,1.40
2022-12-28T07:34:04.968Z,1.57
2022-12-28T07:36:33.523Z,1.20
2022-12-28T07:39:00.981Z,1.30
2022-12-28T07:41:32.855Z,1.67
2022-12-28T07:44:00.332Z,1.20
2022-12-28T07:46:29.568Z,1.30
2022-12-28T07:49:01.017Z,1.23
2022-12-28T07:51:32.266Z,1.70
2022-12-28T07:53:59.837Z,1.63
2022-12-28T07:56:28.243Z,1.60
2022-12-28T07:58:57.332Z,1.67
2022-12-28T08:01:26.441Z,1.90
2022-12-28T08:03:55.327Z,1.50
2022-12-28T08:06:23.514Z,1.73
2022-12-28T08:08:53.924Z,1.90
2022-12-28T08:11:23.650Z,1.50
2022-12-28T08:13:52.602Z,1.77
2022-12-28T08:16:21.137Z,1.67
2022-12-28T08:18:48.852Z,1.60
2022-12-28T08:21:21.014Z,1.80
2022-12-28T08:23:48.425Z,1.47
2022-12-28T08:26:23.551Z,1.73
2022-12-28T08:28:53.532Z,1.80
2022-12-28T08:31:22.857Z,1.53
2022-12-28T08:33:50.485Z,1.90
2022-12-28T08:36:17.282Z,1.30
2022-12-28T08:38:45.177Z,1.50
2022-12-28T08:41:18.049Z,1.50
2022-12-28T08:43:45.558Z,1.73
2022-12-28T08:46:18.092Z,1.80
2022-12-28T08:48:46.683Z,1.40
2022-12-28T08:51:17.332Z,1.63
2022-12-28T08:53:44.950Z,1.43
2022-12-28T08:56:13.231Z,1.30
2022-12-28T08:58:41.565Z,1.60
2022-12-28T09:01:14.841Z,1.53
2022-12-28T09:03:43.965Z,1.63
2022-12-28T09:06:14.243Z,1.60
2022-12-28T09:08:42.578Z,1.30
2022-12-28T09:11:13.605Z,1.57
2022-12-28T09:13:41.026Z,1.70
2022-12-28T09:16:10.978Z,1.80
2022-12-28T09:18:39.533Z,1.37
2022-12-28T09:21:17.176Z,1.30
2022-12-28T09:23:45.445Z,1.10
2022-12-28T09:26:18.095Z,1.67
2022-12-28T09:28:52.657Z,1.60
2022-12-28T09:31:21.096Z,1.27
2022-12-28T09:36:50.936Z,1.57
2022-12-28T09:39:20.589Z,1.93
2022-12-28T09:41:55.566Z,1.50
2022-12-28T09:44:37.513Z,1.60
2022-12-28T09:47:29.266Z,1.03
2022-12-28T09:50:13.883Z,1.40
2022-12-28T09:52:50.039Z,1.33
2022-12-28T09:55:18.898Z,1.70
2022-12-28T09:57:52.260Z,1.07
2022-12-28T10:00:22.836Z,1.50
2022-12-28T10:02:52.992Z,1.03
2022-12-28T10:05:21.317Z,1.30
2022-12-28T10:07:48.154Z,1.50
2022-12-28T10:10:18.821Z,1.10
2022-12-28T10:12:47.484Z,1.20
2022-12-28T10:15:15.647Z,2.30
2022-12-28T10:17:43.143Z,1.20
2022-12-28T10:20:19.006Z,0.93
2022-12-28T10:22:54.772Z,0.97
2022-12-28T10:25:24.678Z,0.97
2022-12-28T10:27:52.523Z,1.33
2022-12-28T10:30:26.959Z,1.00
2022-12-28T10:33:03.360Z,1.20
2022-12-28T10:35:37.357Z,1.33
2022-12-28T10:38:07.532Z,1.10
2022-12-28T10:40:45.755Z,1.03
2022-12-28T10:43:33.962Z,1.10
2022-12-28T10:46:21.940Z,0.90
2022-12-28T10:49:15.409Z,1.13
2022-12-28T10:52:09.623Z,1.30
2022-12-28T10:54:38.444Z,1.00
2022-12-28T10:57:05.467Z,1.20
2022-12-28T10:59:33.211Z,1.40
2022-12-28T11:02:35.842Z,1.20
2022-12-28T11:05:05.015Z,1.20
2022-12-28T11:07:33.289Z,1.23
2022-12-28T11:10:22.746Z,1.00
2022-12-28T11:12:50.294Z,1.37
2022-12-28T11:15:19.176Z,1.00
2022-12-28T11:17:53.124Z,1.10
2022-12-28T11:20:24.805Z,1.20
2022-12-28T11:22:52.259Z,1.13
2022-12-28T11:25:21.308Z,1.20
2022-12-28T11:27:48.655Z,1.20
2022-12-28T11:30:18.079Z,1.30
2022-12-28T11:32:55.510Z,1.17
2022-12-28T11:35:26.701Z,1.10
2022-12-28T11:38:05.618Z,1.47
2022-12-28T11:40:52.895Z,1.13
2022-12-28T11:43:28.630Z,1.43
2022-12-28T11:45:58.949Z,1.50
2022-12-28T11:48:43.902Z,1.03
2022-12-28T11:51:27.123Z,1.37
2022-12-28T11:53:58.578Z,1.40
2022-12-28T11:56:46.417Z,1.70
2022-12-28T11:59:25.065Z,1.30
2022-12-28T12:01:53.736Z,1.23
2022-12-28T12:04:28.315Z,1.20
2022-12-28T12:06:54.949Z,1.50
2022-12-28T12:09:21.629Z,1.20
2022-12-28T12:11:50.884Z,1.83
2022-12-28T12:15:03.637Z,1.13
2022-12-28T12:17:43.414Z,1.37
2022-12-28T12:20:36.588Z,1.50
2022-12-28T12:23:23.572Z,1.27
2022-12-28T12:25:55.700Z,1.37
2022-12-28T12:28:41.176Z,1.17
2022-12-28T12:31:14.863Z,1.47
2022-12-28T12:33:46.694Z,1.93
2022-12-28T12:36:16.481Z,1.40
2022-12-28T12:39:28.505Z,1.50
2022-12-28T12:42:17.296Z,1.47
2022-12-28T12:44:56.897Z,1.30
2022-12-28T12:47:44.903Z,1.97
2022-12-28T12:50:25.829Z,1.47
2022-12-28T12:53:11.538Z,1.33
2022-12-28T12:55:54.494Z,1.20
2022-12-28T12:58:27.048Z,1.57
2022-12-28T13:01:18.358Z,1.10
2022-12-28T13:03:47.809Z,0.77
2022-12-28T13:06:21.450Z,1.07
2022-12-28T13:09:03.326Z,1.20
2022-12-28T13:11:36.415Z,0.80
2022-12-28T13:14:03.241Z,0.97
2022-12-28T13:16:32.690Z,0.97
2022-12-28T13:19:06.057Z,1.10
2022-12-28T13:21:50.701Z,1.03
2022-12-28T13:24:30.671Z,1.13
2022-12-28T13:27:00.019Z,1.03
2022-12-28T13:29:31.035Z,1.00
2022-12-28T13:31:57.694Z,1.17
2022-12-28T13:34:24.373Z,1.10
2022-12-28T13:36:56.723Z,1.47
2022-12-28T13:39:25.364Z,1.10
2022-12-28T13:42:13.637Z,0.90
2022-12-28T13:45:10.693Z,1.30
2022-12-28T13:47:42.217Z,1.50
2022-12-28T13:50:14.461Z,0.70
2022-12-28T13:53:02.903Z,0.93
2022-12-28T13:55:36.332Z,1.10
2022-12-28T13:58:09.780Z,1.27
2022-12-28T14:00:38.914Z,1.00
2022-12-28T14:03:09.296Z,1.43
2022-12-28T14:05:36.255Z,1.00
2022-12-28T14:08:06.056Z,0.93
2022-12-28T14:10:32.948Z,1.20
2022-12-28T14:13:01.508Z,0.93
2022-12-28T14:15:28.540Z,0.87
2022-12-28T14:17:56.014Z,0.83
2022-12-28T14:20:22.671Z,1.27
2022-12-28T14:22:49.571Z,1.37
2022-12-28T14:25:19.293Z,1.33
2022-12-28T14:28:02.414Z,1.20
2022-12-28T14:30:31.557Z,1.30
2022-12-28T14:33:09.946Z,0.97
2022-12-28T14:35:49.208Z,1.37
2022-12-28T14:38:23.181Z,1.37
2022-12-28T14:40:55.100Z,1.10
2022-12-28T14:43:24.444Z,1.27
2022-12-28T14:46:07.141Z,1.10
2022-12-28T14:48:42.966Z,1.23
2022-12-28T14:51:15.702Z,0.93
2022-12-28T14:53:45.763Z,1.10
2022-12-28T14:56:18.749Z,1.00
2022-12-28T14:58:55.707Z,0.97
2022-12-28T15:01:25.436Z,1.07
2022-12-28T15:03:54.950Z,1.10
2022-12-28T15:06:25.795Z,1.00
2022-12-28T15:08:54.343Z,1.07
2022-12-28T15:11:23.256Z,0.90
2022-12-28T15:13:50.428Z,1.00
2022-12-28T15:16:19.129Z,1.03
2022-12-28T15:18:45.907Z,1.00
2022-12-28T15:21:14.963Z,0.97
2022-12-28T15:23:41.675Z,0.90
2022-12-28T15:26:13.156Z,0.93
2022-12-28T15:28:40.158Z,1.23
2022-12-28T15:31:13.544Z,1.20
2022-12-28T15:33:40.620Z,1.10
2022-12-28T15:36:17.032Z,1.00
2022-12-28T15:38:45.562Z,1.43
2022-12-28T15:41:30.743Z,1.83
2022-12-28T15:43:57.486Z,1.33
2022-12-28T15:46:24.199Z,1.30
2022-12-28T15:48:50.908Z,0.77
2022-12-28T15:51:17.555Z,1.40
2022-12-28T15:53:44.222Z,1.20
2022-12-28T15:56:24.363Z,1.10
2022-12-28T15:58:53.754Z,1.43
2022-12-28T16:01:21.084Z,1.40
2022-12-28T16:03:52.118Z,1.17
2022-12-28T16:06:19.795Z,1.23
2022-12-28T16:08:46.545Z,2.00
2022-12-28T16:11:15.919Z,1.57
2022-12-28T16:13:42.780Z,1.30
2022-12-28T16:16:12.343Z,1.80
2022-12-28T16:18:39.798Z,1.77
2022-12-28T16:21:09.077Z,1.60
2022-12-28T16:23:38.533Z,2.50
2022-12-28T16:26:06.808Z,6.67
2022-12-28T16:28:34.194Z,3.43
2022-12-28T16:31:01.611Z,4.50
2022-12-28T16:33:28.453Z,9.97
2022-12-28T16:35:59.538Z,8.30
2022-12-28T16:38:28.912Z,5.10
2022-12-28T16:40:57.019Z,4.10
2022-12-28T16:43:24.393Z,3.80
2022-12-28T16:45:51.172Z,5.70
2022-12-28T16:48:17.866Z,6.97
2022-12-28T16:50:44.565Z,5.17
2022-12-28T16:53:11.240Z,5.27
2022-12-28T16:55:41.103Z,4.13
2022-12-28T16:58:08.635Z,3.90
2022-12-28T17:00:35.516Z,4.10
2022-12-28T17:03:02.340Z,2.47
2022-12-28T17:05:34.364Z,1.93
2022-12-28T17:08:01.747Z,2.83
2022-12-28T17:10:28.850Z,3.80
2022-12-28T17:12:55.562Z,3.40
2022-12-28T17:15:22.352Z,3.00
2022-12-28T17:17:49.039Z,3.07
2022-12-28T17:20:15.829Z,3.43
2022-12-28T17:22:42.499Z,4.93
2022-12-28T17:25:09.174Z,3.50
2022-12-28T17:27:35.822Z,2.80
2022-12-28T17:30:02.498Z,3.30
2022-12-28T17:32:29.147Z,2.80
2022-12-28T17:34:55.755Z,2.17
2022-12-28T17:37:22.442Z,1.80
2022-12-28T17:39:49.102Z,1.77
2022-12-28T17:42:15.831Z,2.37
2022-12-28T17:44:42.513Z,2.00
2022-12-28T17:47:09.145Z,1.93
2022-12-28T17:49:35.933Z,2.37
2022-12-28T17:52:03.042Z,2.10
2022-12-28T17:54:29.696Z,1.60
2022-12-28T17:56:56.374Z,1.87
2022-12-28T17:59:22.977Z,1.57
2022-12-28T18:01:49.696Z,1.50
2022-12-28T18:04:17.584Z,2.13
2022-12-28T18:06:44.219Z,1.90
2022-12-28T18:09:10.882Z,2.60
2022-12-28T18:11:37.535Z,2.20
2022-12-28T18:14:04.211Z,1.73
2022-12-28T18:16:30.946Z,1.47
2022-12-28T18:18:57.574Z,1.90
2022-12-28T18:21:24.255Z,5.30
2022-12-28T18:23:52.625Z,5.87
2022-12-28T18:26:26.511Z,3.60
2022-12-28T18:28:54.625Z,17.10
2022-12-28T18:31:22.036Z,9.87
2022-12-28T18:33:48.901Z,5.50
2022-12-28T18:36:17.923Z,4.53
2022-12-28T18:38:47.019Z,3.70
2022-12-28T18:41:15.694Z,2.90
2022-12-28T18:43:42.617Z,2.73
2022-12-28T18:46:10.122Z,2.90
2022-12-28T18:48:39.144Z,2.40
2022-12-28T18:51:14.309Z,2.40
2022-12-28T18:53:41.829Z,2.10
2022-12-28T18:56:11.385Z,2.10
2022-12-28T18:58:39.386Z,2.33
2022-12-28T19:01:32.923Z,2.73
2022-12-28T19:04:01.715Z,2.00
2022-12-28T19:06:29.482Z,1.97
2022-12-28T19:09:00.603Z,2.33
2022-12-28T19:11:28.249Z,1.80
2022-12-28T19:13:54.957Z,2.23
2022-12-28T19:16:27.138Z,2.20
2022-12-28T19:18:58.145Z,2.53
2022-12-28T19:21:29.300Z,2.30
2022-12-28T19:23:57.921Z,2.77
2022-12-28T19:26:25.541Z,2.17
2022-12-28T19:28:52.817Z,2.10
2022-12-28T19:31:19.904Z,2.53
2022-12-28T19:33:47.280Z,1.97
2022-12-28T19:36:14.078Z,2.37
2022-12-28T19:38:40.826Z,2.33
2022-12-28T19:41:10.117Z,2.43
2022-12-28T19:43:37.141Z,2.40
2022-12-28T19:46:15.702Z,2.00
2022-12-28T19:48:42.817Z,2.30
2022-12-28T19:51:10.889Z,2.07
2022-12-28T19:53:45.931Z,1.87
2022-12-28T19:56:17.181Z,2.17
2022-12-28T19:58:45.103Z,2.00
2022-12-28T20:01:23.073Z,2.33
2022-12-28T20:03:49.958Z,2.73
2022-12-28T20:06:19.712Z,1.80
2022-12-28T20:08:47.583Z,2.20
2022-12-28T20:11:14.264Z,2.60
2022-12-28T20:13:41.289Z,2.33
2022-12-28T20:16:09.147Z,2.10
2022-12-28T20:18:36.260Z,2.57
2022-12-28T20:21:21.886Z,2.83
2022-12-28T20:23:50.642Z,2.10
2022-12-28T20:26:18.674Z,2.33
2022-12-28T20:28:45.711Z,2.20
2022-12-28T20:31:14.718Z,2.93
2022-12-28T20:33:43.211Z,2.00
2022-12-28T20:36:18.792Z,3.03
2022-12-28T20:38:46.523Z,2.90
2022-12-28T20:41:36.322Z,3.80
2022-12-28T20:44:10.985Z,2.30
2022-12-28T20:46:37.723Z,2.10
2022-12-28T20:49:05.035Z,2.90
2022-12-28T20:51:32.537Z,2.63
2022-12-28T20:53:59.322Z,2.90
2022-12-28T20:56:26.153Z,3.00
2022-12-28T20:58:53.329Z,2.43
2022-12-28T21:01:20.070Z,2.43
2022-12-28T21:03:47.175Z,2.17
2022-12-28T21:06:14.253Z,3.23
2022-12-28T21:08:41.093Z,3.10
2022-12-28T21:11:08.059Z,2.90
2022-12-28T21:13:39.239Z,3.23
2022-12-28T21:16:09.815Z,3.20
2022-12-28T21:18:36.779Z,3.70
2022-12-28T21:21:03.777Z,2.53
2022-12-28T21:23:31.604Z,2.83
2022-12-28T21:26:06.522Z,2.93
2022-12-28T21:28:34.724Z,2.33
2022-12-28T21:31:04.924Z,2.23
2022-12-28T21:33:33.059Z,2.70
2022-12-28T21:36:05.475Z,2.97
2022-12-28T21:38:32.974Z,2.30
2022-12-28T21:41:11.499Z,2.10
2022-12-28T21:43:38.857Z,2.30
2022-12-28T21:46:09.033Z,3.00
2022-12-28T21:48:36.991Z,2.53
2022-12-28T21:51:29.316Z,2.23
2022-12-28T21:53:56.477Z,2.57
2022-12-28T21:56:23.658Z,2.30
2022-12-28T21:58:50.315Z,2.67
2022-12-28T22:01:36.335Z,2.40
2022-12-28T22:04:21.626Z,2.60
2022-12-28T22:06:48.259Z,2.40
2022-12-28T22:09:33.476Z,2.87
2022-12-28T22:12:18.708Z,2.77
2022-12-28T22:14:45.338Z,2.50
2022-12-28T22:17:14.463Z,2.93
2022-12-28T22:19:41.440Z,3.30
2022-12-28T22:22:08.111Z,3.60
2022-12-28T22:24:34.702Z,2.20
2022-12-28T22:27:01.519Z,3.20
2022-12-28T22:29:28.169Z,3.17
2022-12-28T22:31:54.855Z,2.90
2022-12-28T22:34:21.540Z,1.97
2022-12-28T22:36:48.224Z,2.40
2022-12-28T22:39:14.836Z,2.00
2022-12-28T22:41:41.475Z,2.30
2022-12-28T22:44:10.150Z,2.20
2022-12-28T22:46:36.948Z,2.10
2022-12-28T22:49:03.720Z,1.70
2022-12-28T22:51:30.390Z,1.60
2022-12-28T22:53:57.103Z,1.93
2022-12-28T22:56:23.797Z,1.90
2022-12-28T22:58:50.448Z,2.60
2022-12-28T23:01:19.454Z,2.10
2022-12-28T23:03:47.746Z,2.23
2022-12-28T23:06:17.482Z,2.43
2022-12-28T23:08:44.710Z,2.13
2022-12-28T23:11:33.016Z,2.00
2022-12-28T23:14:22.507Z,1.93
2022-12-28T23:16:49.842Z,2.20
2022-12-28T23:19:35.628Z,1.80
2022-12-28T23:22:26.905Z,2.00
2022-12-28T23:25:12.110Z,1.80
2022-12-28T23:27:41.814Z,1.90
2022-12-28T23:30:13.673Z,1.60
2022-12-28T23:32:40.403Z,1.60
2022-12-28T23:35:07.367Z,2.00
2022-12-28T23:37:34.038Z,1.90
2022-12-28T23:40:00.662Z,1.87
2022-12-28T23:42:27.535Z,1.93
2022-12-28T23:44:54.220Z,2.17
2022-12-28T23:47:20.897Z,1.60
2022-12-28T23:49:47.560Z,1.63
2022-12-28T23:52:14.250Z,1.53
2022-12-28T23:54:40.910Z,2.07
2022-12-28T23:57:07.547Z,1.57
2022-12-28T23:59:34.209Z,1.50
